Time;durP1;ratioP1;P1;durP2;ratioP2;P2;SDS_P1;SDS_P2;PMS_P1;PMS_P2;Temp;Humidity;BMP_temperature;BMP_pressure;BME280_temperature;BME280_humidity;BME280_pressure;Samples;Min_cycle;Max_cycle;Signal;HPM_P1;HPM_P2
2021/01/29 00:01:47;;;;;;;17.00;11.35;;;0.00;93.90;;;;;;4998309;28;20233;-63
2021/01/29 00:04:13;;;;;;;13.85;10.05;;;-0.10;93.70;;;;;;4998730;28;20236;-64
2021/01/29 00:06:40;;;;;;;14.73;11.25;;;-0.10;93.90;;;;;;4984637;28;20678;-63
2021/01/29 00:09:07;;;;;;;16.48;10.18;;;-0.20;94.10;;;;;;4992745;28;20230;-62
2021/01/29 00:11:33;;;;;;;16.75;11.32;;;0.20;94.10;;;;;;4991444;28;20210;-63
2021/01/29 00:14:00;;;;;;;12.05;9.52;;;0.40;94.10;;;;;;4985137;28;20248;-63
2021/01/29 00:16:26;;;;;;;12.35;10.32;;;1.60;94.20;;;;;;4998286;28;20353;-62
2021/01/29 00:18:53;;;;;;;12.88;10.23;;;0.00;93.60;;;;;;4984405;28;20245;-62
2021/01/29 00:21:19;;;;;;;18.73;10.95;;;0.20;93.50;;;;;;4998062;28;20609;-64
2021/01/29 00:23:46;;;;;;;15.63;11.20;;;0.00;93.60;;;;;;4997282;28;20245;-62
2021/01/29 00:26:12;;;;;;;15.18;10.30;;;-0.10;93.70;;;;;;4998411;28;20281;-62
2021/01/29 00:28:39;;;;;;;18.85;12.07;;;0.20;93.70;;;;;;4998922;28;20210;-61
2021/01/29 00:31:05;;;;;;;12.95;10.40;;;-0.20;93.80;;;;;;4979259;28;20306;-62
2021/01/29 00:33:32;;;;;;;13.68;12.27;;;-0.30;94.00;;;;;;4990174;28;20276;-62
2021/01/29 00:35:59;;;;;;;18.60;12.20;;;-0.30;94.00;;;;;;4998203;28;20220;-62
2021/01/29 00:38:25;;;;;;;16.90;12.35;;;-0.30;94.10;;;;;;4988995;28;20214;-62
2021/01/29 00:40:52;;;;;;;19.70;12.30;;;0.40;94.50;;;;;;4994292;28;20404;-64
2021/01/29 00:43:18;;;;;;;17.85;13.32;;;-0.20;94.50;;;;;;4990425;28;20230;-63
2021/01/29 00:45:45;;;;;;;21.95;12.50;;;1.70;95.40;;;;;;4992569;28;20217;-62
2021/01/29 00:48:12;;;;;;;18.95;13.35;;;0.10;95.00;;;;;;4984553;28;20527;-63
2021/01/29 00:50:39;;;;;;;23.52;14.63;;;-0.10;94.80;;;;;;4998331;28;20272;-63
2021/01/29 00:53:07;;;;;;;21.55;13.88;;;0.00;94.50;;;;;;4986005;28;20376;-63
2021/01/29 00:55:34;;;;;;;26.70;14.75;;;0.60;94.40;;;;;;4990388;28;20221;-63
2021/01/29 00:58:02;;;;;;;23.75;14.63;;;-0.10;94.10;;;;;;4998031;28;20206;-63
2021/01/29 01:00:28;;;;;;;20.27;13.00;;;-0.30;94.40;;;;;;4997968;28;20624;-63
2021/01/29 01:02:56;;;;;;;16.77;11.55;;;-0.50;94.90;;;;;;4997754;28;20547;-63
2021/01/29 01:05:25;;;;;;;20.10;13.93;;;1.00;95.20;;;;;;4996279;28;20232;-63
2021/01/29 01:07:52;;;;;;;19.80;13.05;;;-0.80;95.20;;;;;;4997999;28;20233;-63
2021/01/29 01:10:20;;;;;;;17.48;10.90;;;-0.70;95.30;;;;;;4994152;28;20210;-63
2021/01/29 01:12:47;;;;;;;24.05;13.27;;;-0.70;95.20;;;;;;4989679;28;20220;-62
2021/01/29 01:15:18;;;;;;;16.67;11.80;;;-0.80;95.20;;;;;;4992553;28;20579;-63
2021/01/29 01:17:47;;;;;;;19.05;12.85;;;-0.80;95.50;;;;;;4987032;28;20244;-63
2021/01/29 01:20:16;;;;;;;19.58;12.07;;;-0.30;95.70;;;;;;4984977;28;20210;-63
2021/01/29 01:22:43;;;;;;;20.10;12.95;;;-0.50;95.40;;;;;;4998326;28;20685;-63
2021/01/29 01:25:11;;;;;;;17.25;13.30;;;-0.30;95.50;;;;;;4997512;28;20224;-63
2021/01/29 01:27:37;;;;;;;16.00;11.18;;;-0.30;95.10;;;;;;4993035;28;20209;-62
2021/01/29 01:30:10;;;;;;;17.75;12.48;;;-0.20;94.70;;;;;;4987498;28;20220;-62
2021/01/29 01:32:37;;;;;;;16.20;12.20;;;-0.30;94.40;;;;;;4997415;28;20252;-63
2021/01/29 01:35:05;;;;;;;18.50;10.75;;;-0.40;94.50;;;;;;4991515;28;20217;-62
2021/01/29 01:37:32;;;;;;;17.50;12.07;;;-0.30;94.40;;;;;;4998511;28;20392;-63
2021/01/29 01:39:59;;;;;;;16.13;10.70;;;-0.10;94.30;;;;;;4993401;28;20210;-63
2021/01/29 01:42:25;;;;;;;19.35;12.38;;;1.10;94.50;;;;;;4994460;28;20236;-63
2021/01/29 01:44:52;;;;;;;18.60;12.45;;;0.60;94.40;;;;;;5001584;28;20512;-63
2021/01/29 01:47:44;;;;;;;13.65;10.23;;;-0.30;94.20;;;;;;5001676;28;20216;-63
2021/01/29 01:50:29;;;;;;;16.15;11.60;;;-0.30;93.90;;;;;;4995980;28;20519;-63
2021/01/29 01:52:57;;;;;;;17.27;11.07;;;-0.20;93.90;;;;;;4991586;28;20209;-63
2021/01/29 01:55:29;;;;;;;22.75;12.15;;;-0.10;93.70;;;;;;4984851;28;20202;-63
2021/01/29 01:57:58;;;;;;;17.08;11.27;;;-0.20;93.70;;;;;;4990369;28;20224;-63
2021/01/29 02:00:29;;;;;;;17.58;11.90;;;1.40;94.20;;;;;;5001122;28;20584;-62
2021/01/29 02:03:02;;;;;;;20.13;11.77;;;0.00;93.50;;;;;;4999938;28;20524;-62
2021/01/29 02:05:37;;;;;;;16.98;12.20;;;0.10;93.50;;;;;;5001245;28;20209;-63
2021/01/29 02:08:07;;;;;;;20.00;12.60;;;0.00;93.30;;;;;;4990374;28;20249;-63
2021/01/29 02:10:33;;;;;;;20.10;11.48;;;-0.10;93.50;;;;;;4995184;28;20206;-63
2021/01/29 02:13:02;;;;;;;17.67;10.98;;;-0.20;93.70;;;;;;5000857;28;20217;-64
2021/01/29 02:15:34;;;;;;;17.20;11.50;;;-0.20;93.60;;;;;;5000977;28;20237;-63
2021/01/29 02:18:07;;;;;;;18.15;10.25;;;-1.90;93.00;;;;;;5000403;28;20214;-63
2021/01/29 02:21:09;;;;;;;16.42;10.85;;;-0.20;93.70;;;;;;4992765;28;20237;-63
2021/01/29 02:23:54;;;;;;;17.92;11.70;;;-0.20;93.80;;;;;;4978630;28;20237;-62
2021/01/29 02:26:32;;;;;;;17.85;11.27;;;-0.30;93.80;;;;;;4987813;28;20249;-63
2021/01/29 02:29:17;;;;;;;13.90;10.93;;;1.20;94.30;;;;;;4997026;28;20418;-63
2021/01/29 02:32:17;;;;;;;19.13;12.23;;;-0.40;93.90;;;;;;5000567;28;20210;-63
2021/01/29 02:35:21;;;;;;;20.27;12.73;;;-0.50;94.30;;;;;;4993118;28;20534;-63
2021/01/29 02:38:12;;;;;;;16.52;12.77;;;-0.60;94.60;;;;;;4999544;28;20426;-64
2021/01/29 02:41:01;;;;;;;18.50;11.50;;;-0.60;94.50;;;;;;4995946;28;20205;-63
2021/01/29 02:43:38;;;;;;;24.45;13.70;;;-0.20;94.60;;;;;;4989384;28;20233;-63
2021/01/29 02:46:26;;;;;;;20.50;12.43;;;-0.80;94.70;;;;;;4996466;28;20201;-63
2021/01/29 02:49:07;;;;;;;17.33;12.73;;;0.10;95.30;;;;;;5000151;28;20220;-64
2021/01/29 02:51:50;;;;;;;18.63;12.50;;;-0.70;95.10;;;;;;4996686;28;20232;-64
2021/01/29 02:54:33;;;;;;;20.77;12.95;;;-0.70;95.10;;;;;;4995749;28;20205;-64
2021/01/29 02:57:21;;;;;;;17.05;11.25;;;-0.70;95.10;;;;;;5000811;28;20297;-64
2021/01/29 03:00:11;;;;;;;18.00;13.18;;;-0.60;95.10;;;;;;4998462;28;20209;-64
2021/01/29 03:02:53;;;;;;;16.98;11.95;;;-0.60;95.10;;;;;;4996596;28;20221;-65
2021/01/29 03:05:46;;;;;;;16.42;10.50;;;-0.60;95.00;;;;;;4998314;28;20202;-64
2021/01/29 03:08:24;;;;;;;22.02;11.20;;;-0.60;94.70;;;;;;5005444;28;20229;-64
2021/01/29 03:11:19;;;;;;;18.15;12.18;;;-0.50;94.40;;;;;;4988150;28;20401;-65
2021/01/29 03:14:20;;;;;;;21.52;11.30;;;-0.40;94.60;;;;;;4997061;28;20241;-64
2021/01/29 03:16:55;;;;;;;20.73;12.50;;;-0.30;94.90;;;;;;4981066;28;20206;-64
2021/01/29 03:19:59;;;;;;;22.02;13.98;;;-0.30;94.80;;;;;;4987033;28;20551;-64
2021/01/29 03:22:31;;;;;;;25.40;13.25;;;-0.30;94.70;;;;;;4982065;28;20226;-65
2021/01/29 03:25:15;;;;;;;19.85;13.90;;;-0.40;95.20;;;;;;4991126;28;20734;-65
2021/01/29 03:27:52;;;;;;;26.13;15.30;;;-0.40;95.30;;;;;;4999571;28;20248;-64
2021/01/29 03:30:26;;;;;;;19.58;12.85;;;1.20;95.80;;;;;;5000032;28;20209;-65
2021/01/29 03:32:57;;;;;;;24.10;15.13;;;-0.60;95.40;;;;;;4980594;28;20217;-65
2021/01/29 03:35:36;;;;;;;20.17;12.45;;;-0.10;95.50;;;;;;4980210;28;20513;-64
2021/01/29 03:38:16;;;;;;;15.32;10.68;;;0.60;95.70;;;;;;4981903;28;20253;-64
2021/01/29 03:40:47;;;;;;;15.35;10.35;;;-0.60;95.10;;;;;;4993572;28;20228;-64
2021/01/29 03:43:13;;;;;;;18.90;11.38;;;0.60;95.60;;;;;;4986748;28;20237;-65
2021/01/29 03:45:44;;;;;;;14.35;9.85;;;-0.70;94.80;;;;;;4980331;28;20213;-66
2021/01/29 03:48:20;;;;;;;17.48;10.85;;;0.00;95.00;;;;;;4980031;28;20206;-66
2021/01/29 03:51:34;;;;;;;14.30;9.45;;;-0.70;94.60;;;;;;4980615;28;20341;-65
2021/01/29 03:54:10;;;;;;;12.15;8.07;;;-0.50;94.70;;;;;;4965914;28;20210;-65
2021/01/29 03:56:47;;;;;;;12.10;8.43;;;-0.50;94.40;;;;;;4962986;28;20212;-66
2021/01/29 03:59:23;;;;;;;20.50;10.05;;;-0.60;94.40;;;;;;4992568;28;20233;-66
2021/01/29 04:02:00;;;;;;;14.45;8.35;;;0.80;94.70;;;;;;4980076;28;20206;-66
2021/01/29 04:04:45;;;;;;;10.85;7.53;;;-0.60;94.50;;;;;;4993266;28;20255;-66
2021/01/29 04:07:35;;;;;;;9.55;8.20;;;-0.20;94.60;;;;;;4987713;28;20684;-64
2021/01/29 04:10:14;;;;;;;13.80;8.25;;;-0.60;94.40;;;;;;4981852;28;20202;-66
2021/01/29 04:12:49;;;;;;;10.50;7.30;;;-0.50;94.30;;;;;;4991080;28;20217;-66
2021/01/29 04:15:27;;;;;;;11.82;6.95;;;-0.60;94.40;;;;;;4994058;28;20236;-65
2021/01/29 04:18:04;;;;;;;9.90;6.65;;;-0.60;94.50;;;;;;4991898;28;20217;-66
2021/01/29 04:20:58;;;;;;;13.50;8.30;;;-0.50;94.80;;;;;;4984867;28;20216;-67
2021/01/29 04:23:34;;;;;;;14.07;8.05;;;-0.60;94.70;;;;;;4997982;28;20235;-67
2021/01/29 04:26:07;;;;;;;11.65;8.52;;;1.10;94.90;;;;;;4998912;28;20209;-66
2021/01/29 04:28:40;;;;;;;13.57;9.70;;;-0.50;94.50;;;;;;4983618;28;20218;-66
2021/01/29 04:31:10;;;;;;;13.13;9.80;;;-0.40;94.40;;;;;;4987180;28;20252;-66
2021/01/29 04:33:43;;;;;;;14.30;8.70;;;-0.50;94.30;;;;;;4992078;28;20226;-66
2021/01/29 04:36:14;;;;;;;13.88;9.95;;;-0.60;94.30;;;;;;4992468;28;20607;-66
2021/01/29 04:38:45;;;;;;;15.77;8.70;;;-0.60;94.50;;;;;;4992546;28;20218;-66
2021/01/29 04:41:23;;;;;;;15.18;9.35;;;-0.60;94.40;;;;;;4998194;28;20230;-65
2021/01/29 04:44:17;;;;;;;13.75;8.40;;;-0.60;94.70;;;;;;4986218;28;20237;-65
2021/01/29 04:47:14;;;;;;;10.00;8.55;;;-0.60;94.70;;;;;;4998440;28;20201;-65
2021/01/29 04:50:01;;;;;;;11.00;7.97;;;-0.70;94.70;;;;;;4984914;28;20277;-65
2021/01/29 04:52:52;;;;;;;11.05;7.95;;;-0.70;94.90;;;;;;4993151;28;20214;-66
2021/01/29 04:55:43;;;;;;;13.48;8.38;;;-0.70;94.90;;;;;;4978762;28;20214;-66
2021/01/29 04:58:34;;;;;;;9.00;8.02;;;0.80;95.10;;;;;;4979218;28;20202;-66
2021/01/29 05:01:35;;;;;;;11.57;8.45;;;-0.50;94.60;;;;;;4992888;28;20388;-66
2021/01/29 05:04:53;;;;;;;14.75;7.97;;;-0.60;94.80;;;;;;4998017;28;20236;-66
2021/01/29 05:07:41;;;;;;;7.97;7.20;;;-0.60;94.70;;;;;;4986321;28;20218;-66
2021/01/29 05:10:40;;;;;;;12.50;9.77;;;-0.70;94.80;;;;;;4997641;28;20209;-67
2021/01/29 05:13:48;;;;;;;18.30;8.95;;;-0.70;94.90;;;;;;4995787;28;20210;-67
2021/01/29 05:16:34;;;;;;;11.35;8.32;;;-0.50;94.80;;;;;;4987045;28;20249;-66
2021/01/29 05:19:22;;;;;;;12.52;9.50;;;-0.30;94.90;;;;;;4997646;28;20260;-67
2021/01/29 05:22:06;;;;;;;12.07;7.10;;;-0.80;95.10;;;;;;4996702;28;20278;-69
2021/01/29 05:24:58;;;;;;;13.30;7.40;;;-0.80;95.00;;;;;;4996611;28;20213;-68
2021/01/29 05:27:55;;;;;;;9.90;7.45;;;0.50;95.30;;;;;;4997211;28;20209;-67
2021/01/29 05:30:31;;;;;;;13.45;8.00;;;-0.70;94.80;;;;;;4997203;28;20220;-68
2021/01/29 05:33:19;;;;;;;10.07;7.15;;;-0.70;94.70;;;;;;4997705;28;20213;-67
2021/01/29 05:35:57;;;;;;;11.15;8.30;;;-0.70;94.70;;;;;;4987035;28;20214;-66
2021/01/29 05:38:31;;;;;;;8.73;6.85;;;-0.70;94.80;;;;;;4996017;28;20205;-66
2021/01/29 05:41:25;;;;;;;11.00;7.35;;;-0.80;94.90;;;;;;4996717;28;20219;-66
2021/01/29 05:44:04;;;;;;;7.75;6.55;;;-0.70;94.80;;;;;;4996814;28;20221;-68
2021/01/29 05:46:56;;;;;;;10.77;7.80;;;-0.70;94.90;;;;;;4996763;28;20215;-67
2021/01/29 05:49:30;;;;;;;11.95;7.65;;;-0.50;94.60;;;;;;4985950;28;20673;-68
2021/01/29 05:52:26;;;;;;;9.50;6.85;;;-0.60;94.30;;;;;;4996399;28;20240;-67
2021/01/29 05:55:14;;;;;;;10.18;7.18;;;-0.60;94.50;;;;;;4978926;28;20248;-68
2021/01/29 05:58:11;;;;;;;12.02;8.07;;;-0.50;94.30;;;;;;4979979;28;20225;-67
2021/01/29 06:00:55;;;;;;;13.95;8.10;;;-0.60;94.40;;;;;;4985489;28;20230;-70
2021/01/29 06:03:41;;;;;;;12.27;8.52;;;-0.30;94.20;;;;;;4997380;28;20252;-68
2021/01/29 06:06:22;;;;;;;10.30;6.82;;;-0.20;93.80;;;;;;4996677;28;20633;-67
2021/01/29 06:09:07;;;;;;;18.00;8.98;;;-0.30;93.50;;;;;;4998176;28;20233;-68
2021/01/29 06:11:40;;;;;;;10.32;8.18;;;-0.30;93.40;;;;;;4997074;28;20204;-68
2021/01/29 06:15:03;;;;;;;17.88;9.98;;;-0.30;93.70;;;;;;4996751;28;20246;-69
2021/01/29 06:17:48;;;;;;;15.77;9.68;;;-0.30;93.60;;;;;;4989658;28;20201;-68
2021/01/29 06:20:43;;;;;;;15.60;9.30;;;-0.30;93.60;;;;;;4997363;28;20365;-68
2021/01/29 06:23:44;;;;;;;16.10;8.38;;;-0.20;93.50;;;;;;4998362;28;20424;-68
2021/01/29 06:26:29;;;;;;;19.48;9.32;;;-0.30;93.50;;;;;;4986863;28;20244;-68
2021/01/29 06:29:29;;;;;;;21.98;11.05;;;-0.40;93.70;;;;;;4996534;28;20206;-68
2021/01/29 06:32:13;;;;;;;21.77;10.15;;;-0.30;93.80;;;;;;4997342;28;20241;-68
2021/01/29 06:35:18;;;;;;;12.20;8.05;;;-0.20;93.70;;;;;;5010952;28;20427;-68
2021/01/29 06:38:02;;;;;;;17.13;11.02;;;-0.20;93.60;;;;;;4999827;28;20220;-69
2021/01/29 06:40:47;;;;;;;13.15;9.25;;;0.00;93.40;;;;;;4990503;28;20220;-70
2021/01/29 06:43:55;;;;;;;13.60;7.72;;;-0.10;93.00;;;;;;4997600;28;20234;-68
2021/01/29 06:46:52;;;;;;;11.55;8.88;;;-0.40;93.50;;;;;;4982728;28;20214;-68
2021/01/29 06:49:45;;;;;;;10.65;8.10;;;-0.30;93.40;;;;;;4984722;28;20355;-68
2021/01/29 06:52:48;;;;;;;13.82;9.05;;;-0.30;93.40;;;;;;4999670;28;20205;-68
2021/01/29 06:55:23;;;;;;;16.00;10.55;;;-0.30;93.60;;;;;;4981098;28;20277;-69
2021/01/29 06:58:14;;;;;;;18.85;9.95;;;-0.30;93.40;;;;;;4994096;28;20206;-69
2021/01/29 07:00:58;;;;;;;16.63;9.23;;;-0.40;93.40;;;;;;4983212;28;20713;-68
2021/01/29 07:03:46;;;;;;;17.73;10.75;;;1.60;93.90;;;;;;4988228;28;20673;-68
2021/01/29 07:06:44;;;;;;;18.65;11.35;;;-1.10;92.90;;;;;;4984087;28;20206;-68
2021/01/29 07:09:23;;;;;;;20.08;10.60;;;-0.70;93.50;;;;;;4998221;28;20229;-68
2021/01/29 07:12:32;;;;;;;17.40;10.93;;;-0.70;93.80;;;;;;4984447;28;20265;-68
2021/01/29 07:15:17;;;;;;;17.65;10.80;;;1.40;94.30;;;;;;4999924;28;20245;-68
2021/01/29 07:17:59;;;;;;;21.05;11.93;;;-1.30;93.40;;;;;;4990311;28;20206;-68
2021/01/29 07:20:58;;;;;;;16.15;10.75;;;-0.50;93.40;;;;;;4985124;28;20206;-68
2021/01/29 07:23:58;;;;;;;17.40;11.95;;;0.30;93.90;;;;;;4983534;28;20221;-67
2021/01/29 07:26:44;;;;;;;22.75;12.15;;;-0.50;93.70;;;;;;4987056;28;20209;-69
2021/01/29 07:29:46;;;;;;;13.57;9.32;;;-0.40;93.70;;;;;;5001420;28;20206;-69
2021/01/29 07:32:47;;;;;;;16.77;10.93;;;-0.30;93.20;;;;;;5005683;28;20598;-68
2021/01/29 07:35:27;;;;;;;19.45;10.82;;;-0.30;93.20;;;;;;4988555;28;20449;-68
2021/01/29 07:38:13;;;;;;;22.98;10.63;;;-0.50;93.50;;;;;;4997813;28;20236;-68
2021/01/29 07:40:49;;;;;;;16.20;10.45;;;-0.30;93.90;;;;;;4998345;28;20216;-69
2021/01/29 07:43:41;;;;;;;17.52;9.57;;;0.20;94.30;;;;;;4985982;28;20238;-69
2021/01/29 07:46:36;;;;;;;10.10;7.72;;;0.90;92.80;;;;;;4992968;28;20346;-70
2021/01/29 07:49:38;;;;;;;12.93;7.70;;;1.80;90.20;;;;;;4994122;28;20377;-70
2021/01/29 07:52:26;;;;;;;9.27;7.20;;;2.70;85.50;;;;;;4990182;28;20516;-70
2021/01/29 07:55:13;;;;;;;12.63;8.13;;;3.20;82.30;;;;;;4982991;28;20210;-70
2021/01/29 07:57:59;;;;;;;17.77;10.90;;;3.50;80.60;;;;;;4977170;28;20280;-70
2021/01/29 08:00:52;;;;;;;11.55;6.60;;;3.70;80.30;;;;;;4998972;28;20298;-71
2021/01/29 08:03:43;;;;;;;12.43;7.30;;;3.80;77.60;;;;;;4986678;28;20275;-70
2021/01/29 08:06:17;;;;;;;13.23;7.70;;;4.00;77.40;;;;;;4998110;28;20242;-72
2021/01/29 08:09:05;;;;;;;11.70;7.60;;;4.40;76.40;;;;;;4993253;28;20484;-72
2021/01/29 08:11:36;;;;;;;7.70;5.95;;;4.70;73.70;;;;;;4990512;28;20206;-72
2021/01/29 08:14:39;;;;;;;7.88;6.35;;;4.70;73.10;;;;;;5004425;28;20392;-71
2021/01/29 08:17:33;;;;;;;7.50;5.78;;;4.20;73.10;;;;;;4988522;28;20276;-72
2021/01/29 08:20:23;;;;;;;8.75;5.82;;;3.60;74.80;;;;;;4986705;28;20505;-72
2021/01/29 08:23:05;;;;;;;8.05;5.78;;;3.30;76.10;;;;;;4980583;28;20283;-72
2021/01/29 08:25:50;;;;;;;9.15;6.35;;;2.80;77.60;;;;;;4980104;28;20204;-73
2021/01/29 08:28:53;;;;;;;9.13;6.10;;;2.30;79.50;;;;;;4996658;28;20209;-73
2021/01/29 08:31:38;;;;;;;10.40;6.32;;;2.20;80.80;;;;;;4982983;28;20567;-73
2021/01/29 08:34:18;;;;;;;23.75;10.02;;;2.10;80.60;;;;;;4996500;28;20217;-72
2021/01/29 08:37:07;;;;;;;9.98;7.60;;;2.00;81.70;;;;;;4981410;28;20580;-72
2021/01/29 08:39:55;;;;;;;5.47;4.57;;;2.00;81.60;;;;;;4989979;28;20206;-73
2021/01/29 08:42:31;;;;;;;14.23;8.85;;;1.90;81.90;;;;;;5006824;28;20456;-73
2021/01/29 08:45:38;;;;;;;9.75;7.05;;;1.90;82.30;;;;;;5002655;28;20210;-73
2021/01/29 08:48:23;;;;;;;10.13;4.60;;;1.70;82.10;;;;;;4985632;28;20529;-73
2021/01/29 08:51:01;;;;;;;11.18;7.25;;;1.50;82.20;;;;;;4999347;28;20501;-72
2021/01/29 08:53:49;;;;;;;7.07;5.53;;;1.60;83.40;;;;;;5010578;28;20283;-73
2021/01/29 08:56:21;;;;;;;9.13;6.18;;;1.90;84.10;;;;;;4994357;28;20441;-73
2021/01/29 08:58:53;;;;;;;13.05;6.55;;;2.20;83.20;;;;;;4992885;28;20211;-72
2021/01/29 09:01:41;;;;;;;8.73;4.78;;;2.60;80.90;;;;;;4965958;28;20260;-73
2021/01/29 09:04:33;;;;;;;12.40;5.95;;;3.00;78.70;;;;;;4987529;28;20535;-73
2021/01/29 09:07:21;;;;;;;7.60;5.40;;;3.50;77.50;;;;;;4985914;28;20241;-71
2021/01/29 09:09:50;;;;;;;8.63;6.57;;;3.80;74.80;;;;;;5009228;28;20237;-71
2021/01/29 09:12:28;;;;;;;18.70;7.63;;;4.00;73.40;;;;;;4980473;28;20215;-73
2021/01/29 09:15:22;;;;;;;8.35;5.65;;;4.30;72.50;;;;;;4985525;28;20243;-72
2021/01/29 09:18:01;;;;;;;6.32;5.05;;;4.70;71.00;;;;;;4996894;28;20204;-71
2021/01/29 09:20:41;;;;;;;7.32;5.03;;;4.50;67.70;;;;;;4994296;28;20258;-72
2021/01/29 09:23:21;;;;;;;5.53;4.43;;;4.60;70.10;;;;;;5012549;28;20508;-71
2021/01/29 09:25:53;;;;;;;8.18;5.50;;;4.80;68.80;;;;;;4997666;28;20279;-72
2021/01/29 09:28:34;;;;;;;8.10;6.00;;;4.80;68.10;;;;;;4996397;28;20219;-72
2021/01/29 09:31:18;;;;;;;9.63;4.95;;;4.60;69.00;;;;;;4993660;28;20211;-72
2021/01/29 09:34:02;;;;;;;7.30;4.50;;;4.10;70.10;;;;;;4998043;28;20216;-72
2021/01/29 09:36:46;;;;;;;6.30;4.75;;;3.70;69.90;;;;;;4995587;28;20215;-72
2021/01/29 09:39:27;;;;;;;6.20;4.32;;;3.90;70.70;;;;;;4985891;28;20517;-71
2021/01/29 09:42:07;;;;;;;8.40;4.60;;;3.30;71.40;;;;;;4981284;28;20220;-72
2021/01/29 09:44:52;;;;;;;6.90;4.32;;;3.40;71.60;;;;;;4978664;28;20228;-71
2021/01/29 09:47:22;;;;;;;7.85;4.65;;;3.50;71.00;;;;;;4992068;28;20211;-72
2021/01/29 09:49:50;;;;;;;9.05;6.82;;;5.70;72.30;;;;;;4994617;28;20211;-73
2021/01/29 09:53:18;;;;;;;7.85;5.75;;;3.40;71.60;;;;;;4995840;28;20207;-73
2021/01/29 09:55:58;;;;;;;6.63;4.47;;;3.40;72.40;;;;;;4972970;28;20487;-72
2021/01/29 09:58:30;;;;;;;6.63;4.60;;;3.50;69.70;;;;;;4991563;28;20642;-73
2021/01/29 10:01:19;;;;;;;8.93;5.20;;;3.90;69.40;;;;;;4995856;28;20244;-74
2021/01/29 10:04:16;;;;;;;9.68;5.45;;;3.80;70.10;;;;;;4998420;28;20545;-74
2021/01/29 10:06:58;;;;;;;13.63;6.57;;;4.00;70.10;;;;;;4999324;28;20296;-77
2021/01/29 10:09:34;;;;;;;11.98;4.50;;;4.30;68.40;;;;;;4999227;28;20562;-76
2021/01/29 10:12:07;;;;;;;5.60;4.63;;;4.40;67.10;;;;;;4997329;28;20294;-76
2021/01/29 10:14:55;;;;;;;7.97;5.65;;;4.20;67.10;;;;;;4998120;28;20258;-76
2021/01/29 10:17:34;;;;;;;9.05;5.10;;;4.00;69.80;;;;;;4999376;28;20212;-78
2021/01/29 10:20:06;;;;;;;6.90;4.40;;;3.90;69.40;;;;;;4984307;28;20418;-77
2021/01/29 10:22:58;;;;;;;7.07;4.97;;;4.00;69.70;;;;;;4981558;28;20211;-79
2021/01/29 10:25:40;;;;;;;8.00;5.35;;;3.70;67.20;;;;;;5002048;28;20665;-78
2021/01/29 10:28:43;;;;;;;13.23;6.22;;;3.80;68.30;;;;;;4984701;28;20277;-78
2021/01/29 10:31:11;;;;;;;14.80;7.28;;;4.10;67.30;;;;;;4998145;28;20417;-79
2021/01/29 10:33:45;;;;;;;14.73;6.05;;;4.40;67.60;;;;;;4995896;28;20215;-80
2021/01/29 10:36:30;;;;;;;8.90;6.00;;;4.20;65.50;;;;;;4996927;28;20545;-82
2021/01/29 10:39:12;;;;;;;6.30;5.15;;;4.30;65.60;;;;;;5000507;28;20212;-81
2021/01/29 10:41:48;;;;;;;17.73;6.93;;;4.30;67.20;;;;;;5001363;28;20211;-81
2021/01/29 10:44:28;;;;;;;4.72;4.20;;;4.10;65.70;;;;;;4998862;28;20239;-83
2021/01/29 10:47:18;;;;;;;6.95;5.53;;;4.30;64.70;;;;;;4993119;28;20270;-82
2021/01/29 10:50:22;;;;;;;8.32;4.80;;;3.90;66.00;;;;;;4998849;28;20210;-81
2021/01/29 10:53:25;;;;;;;4.90;4.32;;;3.70;67.40;;;;;;4978546;28;20211;-81
2021/01/29 10:56:01;;;;;;;4.60;3.80;;;3.60;67.90;;;;;;4979506;28;20310;-80
2021/01/29 10:58:34;;;;;;;8.00;4.07;;;3.70;69.00;;;;;;4991958;28;20234;-81
2021/01/29 11:01:32;;;;;;;4.53;2.70;;;3.70;66.00;;;;;;5002207;28;20270;-83
2021/01/29 11:04:20;;;;;;;8.60;4.95;;;3.50;66.00;;;;;;4991815;28;20569;-82
2021/01/29 11:06:53;;;;;;;6.32;4.40;;;3.80;65.80;;;;;;4991015;28;20282;-81
2021/01/29 11:09:31;;;;;;;7.80;3.70;;;3.70;64.40;;;;;;4993301;28;20266;-82
2021/01/29 11:12:03;;;;;;;8.13;4.28;;;3.60;63.20;;;;;;4994646;28;20214;-80
2021/01/29 11:14:40;;;;;;;7.70;5.00;;;3.40;65.80;;;;;;4995986;28;20329;-80
2021/01/29 11:17:35;;;;;;;8.00;4.85;;;3.10;68.30;;;;;;4985922;28;20226;-83
2021/01/29 11:20:12;;;;;;;15.50;7.40;;;3.10;70.60;;;;;;4990050;28;20506;-80
2021/01/29 11:23:12;;;;;;;7.82;5.65;;;3.00;72.40;;;;;;4992661;28;20200;-78
2021/01/29 11:25:57;;;;;;;6.93;5.22;;;2.80;71.30;;;;;;5003366;28;20290;-81
2021/01/29 11:28:30;;;;;;;7.05;5.20;;;2.70;70.20;;;;;;4991628;28;20201;-82
2021/01/29 11:31:14;;;;;;;12.02;8.02;;;2.80;70.20;;;;;;4990626;28;20205;-82
2021/01/29 11:33:48;;;;;;;14.18;9.52;;;2.90;73.60;;;;;;5000590;28;20210;-83
2021/01/29 11:36:54;;;;;;;14.00;10.18;;;3.00;73.80;;;;;;4992303;28;20560;-83
2021/01/29 11:39:31;;;;;;;21.27;11.80;;;2.90;73.70;;;;;;4988673;28;20213;-84
2021/01/29 11:42:11;;;;;;;26.50;11.52;;;2.50;77.20;;;;;;5011172;28;20241;-83
2021/01/29 11:44:56;;;;;;;24.08;11.25;;;2.80;78.00;;;;;;5002351;28;20326;-83
2021/01/29 11:47:49;;;;;;;18.92;10.82;;;2.80;77.40;;;;;;4994921;28;20232;-85
2021/01/29 11:50:27;;;;;;;23.45;11.63;;;3.00;75.70;;;;;;5017370;28;20384;-85
2021/01/29 11:53:24;;;;;;;17.27;9.43;;;3.20;77.00;;;;;;4987290;28;20265;-83
2021/01/29 11:56:03;;;;;;;16.15;10.05;;;3.00;72.10;;;;;;4991260;28;20215;-84
2021/01/29 11:58:36;;;;;;;18.73;8.70;;;2.90;72.40;;;;;;4996080;28;20322;-82
2021/01/29 12:01:19;;;;;;;17.50;8.15;;;2.80;71.20;;;;;;5006846;28;20390;-83
2021/01/29 12:04:09;;;;;;;10.40;7.03;;;2.60;71.30;;;;;;4995750;28;20287;-82
2021/01/29 12:06:45;;;;;;;17.27;9.02;;;2.70;72.50;;;;;;5023292;28;20244;-83
2021/01/29 12:09:21;;;;;;;13.10;8.13;;;2.70;72.40;;;;;;4994961;28;20281;-83
2021/01/29 12:11:58;;;;;;;25.48;9.48;;;2.80;74.40;;;;;;5008187;28;20511;-83
2021/01/29 12:15:14;;;;;;;15.90;9.57;;;2.70;74.30;;;;;;4998230;28;20248;-83
2021/01/29 12:17:58;;;;;;;18.73;10.82;;;2.70;76.30;;;;;;4986304;28;20529;-82
2021/01/29 12:20:31;;;;;;;18.27;11.55;;;2.60;77.00;;;;;;5003554;28;20201;-83
2021/01/29 12:23:13;;;;;;;15.60;9.93;;;2.60;77.00;;;;;;4984931;28;20238;-83
2021/01/29 12:25:56;;;;;;;14.32;10.35;;;2.80;77.00;;;;;;4996650;28;20207;-85
2021/01/29 12:28:53;;;;;;;24.23;12.32;;;2.70;75.40;;;;;;4990674;28;20202;-82
2021/01/29 12:31:44;;;;;;;18.65;10.63;;;2.70;75.10;;;;;;4997348;28;20242;-83
2021/01/29 12:34:33;;;;;;;19.50;9.93;;;2.50;75.70;;;;;;5007977;28;20206;-85
2021/01/29 12:37:34;;;;;;;14.40;9.23;;;2.60;76.30;;;;;;5011758;28;20201;-86
2021/01/29 12:40:38;;;;;;;21.83;10.55;;;2.60;74.40;;;;;;4999708;28;20213;-84
2021/01/29 12:43:47;;;;;;;14.98;10.25;;;2.20;75.80;;;;;;4985904;28;20786;-86
2021/01/29 12:46:31;;;;;;;13.73;8.35;;;2.10;75.60;;;;;;4991209;28;20209;-85
2021/01/29 12:49:08;;;;;;;19.75;8.55;;;2.00;75.90;;;;;;5001087;28;20492;-84
2021/01/29 12:51:47;;;;;;;11.07;7.45;;;1.90;76.20;;;;;;5002426;28;20201;-84
2021/01/29 12:54:29;;;;;;;15.85;7.75;;;1.90;74.40;;;;;;4998070;28;20197;-81
2021/01/29 12:57:04;;;;;;;14.38;8.43;;;1.80;75.40;;;;;;4997226;28;20436;-80
2021/01/29 13:00:16;;;;;;;14.10;8.90;;;1.70;78.00;;;;;;4990542;28;20198;-84
2021/01/29 13:02:57;;;;;;;11.40;9.07;;;1.60;78.50;;;;;;4996411;28;20248;-83
2021/01/29 13:05:39;;;;;;;8.43;6.13;;;1.70;78.40;;;;;;4998268;28;20221;-84
2021/01/29 13:08:27;;;;;;;17.63;8.77;;;1.80;76.00;;;;;;4998995;28;20456;-83
2021/01/29 13:11:12;;;;;;;14.43;6.75;;;2.00;76.20;;;;;;4999017;28;20209;-86
2021/01/29 13:13:56;;;;;;;16.23;8.20;;;2.10;75.70;;;;;;4986737;28;20531;-84
2021/01/29 13:16:33;;;;;;;19.92;9.27;;;2.30;75.10;;;;;;4995504;28;20276;-81
2021/01/29 13:19:05;;;;;;;10.02;6.30;;;2.10;75.80;;;;;;4999501;28;20227;-85
2021/01/29 13:21:53;;;;;;;14.50;7.65;;;1.80;75.70;;;;;;4998399;28;20201;-85
2021/01/29 13:24:28;;;;;;;11.70;7.50;;;1.90;75.20;;;;;;4999073;28;20423;-85
2021/01/29 13:27:02;;;;;;;12.98;6.50;;;1.90;75.50;;;;;;5014228;28;20208;-80
2021/01/29 13:29:32;;;;;;;8.68;5.53;;;1.80;74.30;;;;;;4990869;28;20252;-83
2021/01/29 13:32:22;;;;;;;8.88;5.70;;;1.70;73.50;;;;;;4994700;28;20341;-84
2021/01/29 13:34:50;;;;;;;11.05;7.20;;;1.80;73.70;;;;;;5005199;28;20583;-86
2021/01/29 13:37:24;;;;;;;20.50;14.50;;;1.70;73.70;;;;;;4990971;28;20501;-85
2021/01/29 13:40:13;;;;;;;9.98;6.72;;;1.80;73.00;;;;;;5017947;28;20244;-86
2021/01/29 13:42:41;;;;;;;10.73;6.65;;;1.80;75.00;;;;;;4996572;28;20302;-85
2021/01/29 13:45:16;;;;;;;12.55;6.10;;;1.70;74.40;;;;;;4995083;28;20213;-85
2021/01/29 13:47:48;;;;;;;8.63;6.90;;;1.80;75.70;;;;;;4998442;28;20236;-83
2021/01/29 13:50:24;;;;;;;9.98;6.70;;;1.80;76.30;;;;;;4994263;28;20213;-85
2021/01/29 13:52:54;;;;;;;12.50;7.53;;;1.80;76.70;;;;;;5004346;28;20249;-83
2021/01/29 13:55:39;;;;;;;13.90;6.65;;;1.80;75.50;;;;;;5007221;28;20241;-84
2021/01/29 13:58:24;;;;;;;10.95;6.60;;;1.70;76.70;;;;;;5003439;28;20354;-84